Airfield :
LOGIN :

Register | Disclaimer

   EN    FR    IT 

 










Legend :    VFR   Marginal VFR   IFR   Intensive IFR   Very Intensive IFR
Visi :
Ceiling :
>= 8 km
>= 3000ft
5 to 8 km
1000 to 3000 ft
1500m to 5 km
500 to 1000 ft
800 to 1500m
200 to 500 ft
< 800m
< 200 ft
Symbols :   Thunderstorms  Fog  Heavy snow  Heavy precipitations  Wind > 20 kt
SIGMETs :     Misc.  Thunderstorms  Icing  Turbulence  Mountain Waves  Volcanic Ashes







- Airport Elevation : 74 ft
- IATA code : EIN


EHEH - Eindhoven

CURRENT METAR :
  • 220355Z AUTO 01002KT 9999 FEW062 11/10 Q1011 BLU

EXPIRED METARs :
  • 220325Z AUTO 04001KT 9999 NCD 11/10 Q1011 BLU
  • 220255Z AUTO 29001KT 9999 NCD 11/10 Q1011 BLU
  • 220225Z AUTO 24003KT 200V260 9999 SCT140 11/10 Q1011 BLU
  • 220155Z AUTO 25002KT 9999 FEW160 12/10 Q1011 BLU
  • 220125Z AUTO 05002KT 9999 NCD 15/11 Q1011 BLU

TAF TAF EHEH
Valid from the 22 at 00:00 until the 23 at 06:00 UTC


212302Z 2200/2306 04003KT CAVOK
TEMPO 2212/2223 4000 SHRA SCT050CB BKN060
PROB40
TEMPO 2213/2223 VRB10G20KT 3500 TSRAGR BKN040CB BKN050
PROB30 2303/2306 4000 SHRA SCT050CB BKN060
No reported NOTAMs for that airfield.



MET'MAP, your aeronautical weather chart ! - Copyright ORBIFLY December 2007 - Disclaimer

ORBIFLY MET'MAP TEAM :

Programming & Development : Alexandra Zaïnal
Concept & Development : Baudouin d'Aumeries
Co-Development & Prog : Marc-Olivier Méhu
Technical & hardware support : Manuel Goepfert

Contact : metmap@orbifly.com




SOURCES & CREDITS :

   NOAA